createdAt,value
2023-02-03T00:01:49.604Z,94.57
2023-02-03T00:04:16.353Z,94.53
2023-02-03T00:06:43.777Z,94.56
2023-02-03T00:09:10.664Z,94.82
2023-02-03T00:11:37.724Z,94.78
2023-02-03T00:14:05.435Z,94.73
2023-02-03T00:16:32.186Z,94.85
2023-02-03T00:18:58.886Z,94.97
2023-02-03T00:21:25.653Z,94.85
2023-02-03T00:23:52.363Z,94.76
2023-02-03T00:26:19.204Z,94.94
2023-02-03T00:28:45.801Z,94.90
2023-02-03T00:31:20.589Z,95.18
2023-02-03T00:33:47.977Z,96.67
2023-02-03T00:36:14.882Z,96.06
2023-02-03T00:38:41.512Z,96.34
2023-02-03T00:41:08.116Z,96.92
2023-02-03T00:43:34.857Z,96.86
2023-02-03T00:46:01.567Z,97.14
2023-02-03T00:48:28.221Z,97.51
2023-02-03T00:50:54.840Z,97.54
2023-02-03T00:53:21.407Z,97.89
2023-02-03T00:55:48.052Z,97.55
2023-02-03T00:58:14.715Z,97.99
2023-02-03T01:00:41.359Z,97.86
2023-02-03T01:03:08.136Z,98.16
2023-02-03T01:05:34.784Z,98.32
2023-02-03T01:08:01.789Z,98.37
2023-02-03T01:10:29.788Z,98.08
2023-02-03T01:12:56.919Z,98.47
2023-02-03T01:15:23.615Z,98.34
2023-02-03T01:17:50.370Z,98.25
2023-02-03T01:20:17.308Z,98.73
2023-02-03T01:22:45.368Z,98.84
2023-02-03T01:25:12.035Z,98.75
2023-02-03T01:27:38.807Z,98.47
2023-02-03T01:30:06.165Z,98.51
2023-02-03T01:32:33.696Z,98.18
2023-02-03T01:35:00.336Z,98.29
2023-02-03T01:37:26.991Z,98.02
2023-02-03T01:39:53.667Z,98.07
2023-02-03T01:42:20.301Z,97.94
2023-02-03T01:44:51.116Z,98.07
2023-02-03T01:47:18.035Z,98.58
2023-02-03T01:49:58.404Z,98.54
2023-02-03T01:52:26.582Z,98.68
2023-02-03T01:54:55.438Z,98.56
2023-02-03T01:57:29.782Z,98.56
2023-02-03T01:59:59.946Z,98.98
2023-02-03T02:02:27.158Z,98.82
2023-02-03T02:05:09.695Z,98.85
2023-02-03T02:07:38.514Z,98.57
2023-02-03T02:10:06.645Z,98.22
2023-02-03T02:12:33.340Z,98.08
2023-02-03T02:15:00.339Z,98.53
2023-02-03T02:17:50.196Z,98.61
2023-02-03T02:20:35.498Z,98.73
2023-02-03T02:23:08.055Z,98.64
2023-02-03T02:25:40.434Z,98.45
2023-02-03T02:28:18.785Z,98.35
2023-02-03T02:31:06.153Z,98.88
2023-02-03T02:33:33.508Z,99.04
2023-02-03T02:36:11.257Z,99.14
2023-02-03T02:38:57.672Z,98.83
2023-02-03T02:41:48.793Z,98.58
2023-02-03T02:44:39.215Z,98.27
2023-02-03T02:47:17.749Z,98.34
2023-02-03T02:50:06.978Z,98.71
2023-02-03T02:52:37.929Z,98.59
2023-02-03T02:55:16.494Z,98.46
2023-02-03T02:57:44.629Z,98.18
2023-02-03T03:00:12.428Z,98.34
2023-02-03T03:02:39.449Z,98.26
2023-02-03T03:05:10.801Z,98.21
2023-02-03T03:08:02.744Z,98.19
2023-02-03T03:10:32.473Z,97.93
2023-02-03T03:13:09.595Z,98.07
2023-02-03T03:15:39.214Z,98.29
2023-02-03T03:18:09.210Z,98.82
2023-02-03T03:20:37.502Z,99.10
2023-02-03T03:23:10.531Z,99.45
2023-02-03T03:25:46.014Z,99.38
2023-02-03T03:28:40.426Z,99.19
2023-02-03T03:31:07.128Z,99.22
2023-02-03T03:33:33.831Z,99.35
2023-02-03T03:36:11.209Z,99.27
2023-02-03T03:38:48.709Z,98.83
2023-02-03T03:41:32.375Z,99.26
2023-02-03T03:44:03.027Z,99.71
2023-02-03T03:46:43.442Z,99.60
2023-02-03T03:49:12.036Z,99.68
2023-02-03T03:51:48.833Z,99.71
2023-02-03T03:54:19.089Z,99.96
2023-02-03T03:57:01.717Z,99.73
2023-02-03T03:59:32.605Z,99.99
2023-02-03T04:02:04.547Z,99.99
2023-02-03T04:04:37.636Z,99.99
2023-02-03T04:07:04.470Z,99.99
2023-02-03T04:09:31.225Z,99.99
2023-02-03T04:12:05.855Z,99.99
2023-02-03T04:14:37.748Z,99.99
2023-02-03T04:17:04.820Z,99.99
2023-02-03T04:19:31.539Z,99.99
2023-02-03T04:21:58.114Z,99.99
2023-02-03T04:24:24.771Z,99.99
2023-02-03T04:26:51.831Z,99.99
2023-02-03T04:29:18.494Z,99.99
2023-02-03T04:31:45.298Z,99.99
2023-02-03T04:34:12.092Z,99.99
2023-02-03T04:36:38.701Z,99.99
2023-02-03T04:39:05.354Z,99.99
2023-02-03T04:41:32.025Z,99.99
2023-02-03T04:43:58.619Z,99.99
2023-02-03T04:46:25.291Z,99.99
2023-02-03T04:48:51.853Z,99.99
2023-02-03T04:51:18.426Z,99.99
2023-02-03T04:53:45.015Z,99.99
2023-02-03T04:56:11.757Z,99.99
2023-02-03T04:58:38.358Z,99.99
2023-02-03T05:01:09.057Z,99.99
2023-02-03T05:03:36.205Z,99.99
2023-02-03T05:06:03.350Z,99.99
2023-02-03T05:08:30.587Z,99.99
2023-02-03T05:10:58.388Z,99.99
2023-02-03T05:13:25.887Z,99.99
2023-02-03T05:15:52.559Z,99.99
2023-02-03T05:18:19.256Z,99.99
2023-02-03T05:20:45.881Z,99.99
2023-02-03T05:23:12.474Z,99.99
2023-02-03T05:25:39.089Z,99.99
2023-02-03T05:28:06.002Z,99.99
2023-02-03T05:30:32.634Z,99.99
2023-02-03T05:32:59.229Z,99.99
2023-02-03T05:35:25.844Z,99.99
2023-02-03T05:37:52.454Z,99.99
2023-02-03T05:40:37.637Z,99.99
2023-02-03T05:43:04.238Z,99.99
2023-02-03T05:45:31.775Z,99.99
2023-02-03T05:47:58.509Z,99.99
2023-02-03T05:50:27.066Z,99.99
2023-02-03T05:52:53.841Z,99.99
2023-02-03T05:55:20.462Z,99.99
2023-02-03T05:57:47.084Z,99.99
2023-02-03T06:00:14.925Z,99.99
2023-02-03T06:02:43.271Z,99.99
2023-02-03T06:05:09.825Z,99.99
2023-02-03T06:07:36.458Z,99.99
2023-02-03T06:10:03.255Z,99.99
2023-02-03T06:12:32.804Z,99.99
2023-02-03T06:15:00.698Z,99.99
2023-02-03T06:17:27.217Z,99.99
2023-02-03T06:19:53.870Z,99.99
2023-02-03T06:22:20.476Z,99.99
2023-02-03T06:24:48.206Z,99.99
2023-02-03T06:27:15.508Z,99.99
2023-02-03T06:29:42.844Z,99.99
2023-02-03T06:32:09.779Z,99.99
2023-02-03T06:34:36.344Z,99.99
2023-02-03T06:37:02.954Z,99.99
2023-02-03T06:39:29.753Z,99.99
2023-02-03T06:41:56.462Z,99.99
2023-02-03T06:44:23.381Z,99.99
2023-02-03T06:46:50.705Z,99.99
2023-02-03T06:49:17.752Z,99.99
2023-02-03T06:51:45.696Z,99.99
2023-02-03T06:54:13.498Z,99.99
2023-02-03T06:56:40.262Z,99.99
2023-02-03T06:59:06.940Z,99.99
2023-02-03T07:01:33.712Z,99.99
2023-02-03T07:04:00.363Z,99.99
2023-02-03T07:06:29.931Z,99.99
2023-02-03T07:08:57.054Z,99.99
2023-02-03T07:11:24.302Z,99.99
2023-02-03T07:13:51.567Z,99.99
2023-02-03T07:16:18.547Z,99.99
2023-02-03T07:18:48.076Z,99.99
2023-02-03T07:21:16.691Z,99.99
2023-02-03T07:23:43.335Z,99.99
2023-02-03T07:26:10.754Z,99.99
2023-02-03T07:28:37.417Z,99.99
2023-02-03T07:31:10.189Z,99.99
2023-02-03T07:33:38.227Z,99.99
2023-02-03T07:36:05.486Z,99.99
2023-02-03T07:38:32.273Z,99.99
2023-02-03T07:40:58.953Z,99.99
2023-02-03T07:43:25.639Z,99.99
2023-02-03T07:45:52.310Z,99.99
2023-02-03T07:48:18.903Z,99.99
2023-02-03T07:50:45.766Z,99.99
2023-02-03T07:53:12.420Z,99.99
2023-02-03T07:55:40.027Z,99.99
2023-02-03T07:58:06.763Z,99.99
2023-02-03T08:00:33.636Z,99.99
2023-02-03T08:03:01.299Z,99.99
2023-02-03T08:05:29.421Z,99.98
2023-02-03T08:07:56.800Z,99.99
2023-02-03T08:10:23.425Z,99.99
2023-02-03T08:12:53.564Z,99.99
2023-02-03T08:15:20.389Z,99.99
2023-02-03T08:17:48.764Z,99.99
2023-02-03T08:20:16.500Z,99.99
2023-02-03T08:22:43.406Z,99.99
2023-02-03T08:25:10.853Z,99.99
2023-02-03T08:27:39.116Z,99.99
2023-02-03T08:30:07.250Z,99.99
2023-02-03T08:32:34.278Z,99.99
2023-02-03T08:35:01.011Z,99.99
2023-02-03T08:37:30.175Z,99.99
2023-02-03T08:39:56.844Z,99.99
2023-02-03T08:42:23.434Z,99.99
2023-02-03T08:44:50.029Z,99.99
2023-02-03T08:47:17.232Z,99.99
2023-02-03T08:49:43.909Z,99.99
2023-02-03T08:52:13.123Z,99.97
2023-02-03T08:54:39.769Z,99.99
2023-02-03T08:57:07.118Z,99.99
2023-02-03T08:59:36.161Z,99.99
2023-02-03T09:02:04.690Z,99.99
2023-02-03T09:04:33.407Z,99.99
2023-02-03T09:07:02.593Z,99.99
2023-02-03T09:09:29.987Z,99.99
2023-02-03T09:12:01.988Z,99.99
2023-02-03T09:14:33.119Z,99.99
2023-02-03T09:17:01.788Z,99.99
2023-02-03T09:19:28.311Z,99.99
2023-02-03T09:21:56.681Z,99.98
2023-02-03T09:24:24.524Z,99.94
2023-02-03T09:26:51.381Z,99.99
2023-02-03T09:29:18.116Z,99.99
2023-02-03T09:31:46.996Z,99.89
2023-02-03T09:34:13.698Z,99.98
2023-02-03T09:36:41.915Z,99.99
2023-02-03T09:39:09.668Z,99.94
2023-02-03T09:42:04.177Z,99.65
2023-02-03T09:44:37.519Z,99.87
2023-02-03T09:47:18.845Z,99.66
2023-02-03T09:49:52.185Z,99.77
2023-02-03T09:52:40.052Z,99.73
2023-02-03T09:55:26.006Z,99.38
2023-02-03T09:58:00.276Z,99.40
2023-02-03T10:00:35.067Z,99.22
2023-02-03T10:03:16.932Z,99.30
2023-02-03T10:06:15.245Z,98.73
2023-02-03T10:08:50.962Z,98.88
2023-02-03T10:11:44.191Z,98.84
2023-02-03T10:14:48.961Z,98.58
2023-02-03T10:17:37.780Z,98.87
2023-02-03T10:20:42.807Z,98.78
2023-02-03T10:23:17.642Z,98.48
2023-02-03T10:25:49.665Z,98.76
2023-02-03T10:28:22.919Z,98.18
2023-02-03T10:30:58.361Z,97.89
2023-02-03T10:33:30.428Z,97.12
2023-02-03T10:36:06.142Z,95.41
2023-02-03T10:38:57.482Z,93.05
2023-02-03T10:41:24.625Z,94.02
2023-02-03T10:43:53.405Z,93.42
2023-02-03T10:46:34.996Z,93.66
2023-02-03T10:49:02.235Z,92.90
2023-02-03T10:51:35.038Z,93.09
2023-02-03T10:54:01.725Z,92.92
2023-02-03T10:56:36.181Z,92.74
2023-02-03T10:59:03.614Z,92.58
2023-02-03T11:01:49.202Z,92.90
2023-02-03T11:04:26.855Z,93.18
2023-02-03T11:06:56.445Z,92.26
2023-02-03T11:09:33.453Z,92.04
2023-02-03T11:12:26.564Z,91.25
2023-02-03T11:14:54.344Z,90.38
2023-02-03T11:17:29.598Z,89.19
2023-02-03T11:20:15.601Z,89.17
2023-02-03T11:22:43.271Z,89.28
2023-02-03T11:25:20.531Z,89.30
2023-02-03T11:27:47.323Z,89.23
2023-02-03T11:30:20.227Z,88.65
2023-02-03T11:32:48.204Z,88.82
2023-02-03T11:35:23.808Z,89.13
2023-02-03T11:37:56.671Z,87.07
2023-02-03T11:40:26.729Z,87.62
2023-02-03T11:42:56.463Z,87.61
2023-02-03T11:45:35.953Z,87.51
2023-02-03T11:48:13.944Z,86.26
2023-02-03T11:51:04.459Z,85.45
2023-02-03T11:53:56.203Z,85.37
2023-02-03T11:56:51.015Z,84.89
2023-02-03T11:59:42.295Z,82.95
2023-02-03T12:02:30.577Z,81.95
2023-02-03T12:05:30.919Z,82.08
2023-02-03T12:08:03.461Z,81.61
2023-02-03T12:10:32.782Z,80.20
2023-02-03T12:13:17.710Z,80.36
2023-02-03T12:16:33.779Z,81.47
2023-02-03T12:19:21.941Z,80.96
2023-02-03T12:22:00.519Z,81.52
2023-02-03T12:24:53.136Z,80.23
2023-02-03T12:28:00.406Z,80.31
2023-02-03T12:30:34.385Z,81.08
2023-02-03T12:33:06.522Z,80.49
2023-02-03T12:35:38.910Z,80.58
2023-02-03T12:38:10.468Z,79.02
2023-02-03T12:40:59.775Z,81.73
2023-02-03T12:43:50.559Z,84.51
2023-02-03T12:46:31.135Z,89.11
2023-02-03T12:49:13.263Z,92.61
2023-02-03T12:52:03.755Z,95.03
2023-02-03T12:54:47.850Z,94.82
2023-02-03T12:57:25.739Z,95.23
2023-02-03T13:00:12.090Z,94.35
2023-02-03T13:03:08.976Z,93.27
2023-02-03T13:05:58.197Z,93.90
2023-02-03T13:08:36.814Z,94.03
2023-02-03T13:11:15.015Z,93.93
2023-02-03T13:13:54.361Z,94.43
2023-02-03T13:16:26.925Z,94.86
2023-02-03T13:19:02.398Z,94.34
2023-02-03T13:21:29.287Z,93.65
2023-02-03T13:23:56.084Z,93.63
2023-02-03T13:26:48.477Z,93.54
2023-02-03T13:29:49.163Z,92.55
2023-02-03T13:33:02.326Z,91.17
2023-02-03T13:35:50.395Z,88.98
2023-02-03T13:38:35.279Z,87.59
2023-02-03T13:41:19.729Z,86.12
2023-02-03T13:43:52.441Z,86.05
2023-02-03T13:46:34.243Z,86.26
2023-02-03T13:49:04.679Z,85.27
2023-02-03T13:51:34.738Z,84.77
2023-02-03T13:54:08.802Z,83.26
2023-02-03T13:56:35.866Z,83.47
2023-02-03T13:59:14.602Z,83.65
2023-02-03T14:01:42.742Z,82.44
2023-02-03T14:04:24.839Z,81.70
2023-02-03T14:06:54.225Z,82.80
2023-02-03T14:09:35.357Z,82.97
2023-02-03T14:12:30.206Z,82.24
2023-02-03T14:15:04.673Z,83.01
2023-02-03T14:17:34.242Z,82.58
2023-02-03T14:20:24.389Z,81.78
2023-02-03T14:22:59.520Z,80.88
2023-02-03T14:25:27.305Z,80.69
2023-02-03T14:28:02.376Z,80.91
2023-02-03T14:30:29.360Z,81.23
2023-02-03T14:33:00.720Z,80.80
2023-02-03T14:35:32.993Z,80.69
2023-02-03T14:38:06.320Z,81.41
2023-02-03T14:40:59.605Z,82.20
2023-02-03T14:44:04.819Z,81.67
2023-02-03T14:46:56.748Z,81.05
2023-02-03T14:49:32.206Z,80.30
2023-02-03T14:52:07.714Z,79.69
2023-02-03T14:54:37.230Z,79.75
2023-02-03T14:57:18.337Z,79.15
2023-02-03T14:59:56.464Z,80.10
2023-02-03T15:02:27.114Z,81.20
2023-02-03T15:05:13.816Z,81.78
2023-02-03T15:07:49.598Z,83.74
2023-02-03T15:10:22.658Z,85.28
2023-02-03T15:12:50.515Z,87.49
2023-02-03T15:15:28.148Z,89.45
2023-02-03T15:17:57.898Z,90.25
2023-02-03T15:20:41.479Z,89.53
2023-02-03T15:23:25.359Z,89.66
2023-02-03T15:25:57.656Z,88.84
2023-02-03T15:28:26.699Z,87.62
2023-02-03T15:31:03.497Z,87.24
2023-02-03T15:33:32.399Z,87.40
2023-02-03T15:36:12.962Z,86.71
2023-02-03T15:38:45.503Z,86.99
2023-02-03T15:41:22.225Z,86.61
2023-02-03T15:43:53.380Z,87.16
2023-02-03T15:46:33.586Z,87.69
2023-02-03T15:49:00.215Z,88.19
2023-02-03T15:51:37.520Z,88.17
2023-02-03T15:54:12.363Z,88.02
2023-02-03T15:56:57.395Z,88.70
2023-02-03T15:59:37.286Z,88.67
2023-02-03T16:02:31.961Z,88.66
2023-02-03T16:05:05.215Z,89.27
2023-02-03T16:07:31.903Z,89.51
2023-02-03T16:09:59.829Z,88.81
2023-02-03T16:12:31.573Z,89.12
2023-02-03T16:15:02.316Z,88.55
2023-02-03T16:17:36.982Z,88.37
2023-02-03T16:20:12.836Z,88.63
2023-02-03T16:22:44.397Z,88.47
2023-02-03T16:25:20.487Z,88.28
2023-02-03T16:28:32.372Z,88.43
2023-02-03T16:31:32.111Z,88.65
2023-02-03T16:34:20.146Z,88.81
2023-02-03T16:37:05.257Z,89.34
2023-02-03T16:39:50.308Z,88.10
2023-02-03T16:42:38.893Z,89.02
2023-02-03T16:45:36.312Z,89.02
2023-02-03T16:48:22.521Z,88.61
2023-02-03T16:50:58.234Z,88.48
2023-02-03T16:53:30.795Z,88.20
2023-02-03T16:56:00.354Z,88.34
2023-02-03T16:58:27.590Z,87.87
2023-02-03T17:00:55.226Z,88.15
2023-02-03T17:03:24.263Z,88.20
2023-02-03T17:05:52.006Z,88.09
2023-02-03T17:08:21.968Z,88.54
2023-02-03T17:10:49.295Z,88.32
2023-02-03T17:13:18.158Z,88.34
2023-02-03T17:15:52.469Z,88.34
2023-02-03T17:18:20.092Z,88.28
2023-02-03T17:20:47.600Z,88.12
2023-02-03T17:23:18.153Z,87.85
2023-02-03T17:25:47.887Z,87.73
2023-02-03T17:28:15.263Z,87.33
2023-02-03T17:30:42.296Z,86.90
2023-02-03T17:33:12.960Z,87.01
2023-02-03T17:35:44.046Z,86.55
2023-02-03T17:38:16.787Z,85.50
2023-02-03T17:54:29.269Z,86.59
2023-02-03T17:56:55.898Z,86.27
2023-02-03T17:59:22.439Z,86.48
2023-02-03T18:01:49.240Z,86.13
2023-02-03T18:04:15.934Z,86.52
2023-02-03T18:06:42.582Z,86.41
2023-02-03T18:09:10.181Z,86.52
2023-02-03T18:11:37.575Z,86.68
2023-02-03T18:14:05.416Z,86.64
2023-02-03T18:16:34.775Z,86.88
2023-02-03T18:19:06.345Z,86.35
2023-02-03T18:21:33.624Z,86.30
2023-02-03T18:24:01.714Z,86.14
2023-02-03T18:26:34.475Z,86.14
2023-02-03T18:29:01.259Z,85.87
2023-02-03T18:31:28.007Z,86.08
2023-02-03T18:33:54.779Z,85.89
2023-02-03T18:36:21.864Z,86.25
2023-02-03T18:38:51.608Z,85.72
2023-02-03T18:41:23.335Z,86.48
2023-02-03T18:43:51.212Z,86.77
2023-02-03T18:46:26.736Z,86.86
2023-02-03T18:48:53.618Z,86.60
2023-02-03T18:51:21.614Z,87.05
2023-02-03T18:53:49.209Z,87.08
2023-02-03T18:56:22.342Z,86.88
2023-02-03T18:58:49.265Z,86.89
2023-02-03T19:01:27.704Z,87.54
2023-02-03T19:03:59.981Z,87.12
2023-02-03T19:06:28.293Z,87.56
2023-02-03T19:08:55.097Z,88.03
2023-02-03T19:11:22.819Z,88.32
2023-02-03T19:13:49.392Z,88.92
2023-02-03T19:16:17.725Z,89.43
2023-02-03T19:18:45.487Z,89.94
2023-02-03T19:21:12.819Z,90.81
2023-02-03T19:23:42.861Z,91.62
2023-02-03T19:26:10.318Z,91.32
2023-02-03T19:28:37.828Z,91.75
2023-02-03T19:31:08.416Z,91.17
2023-02-03T19:33:36.301Z,91.10
2023-02-03T19:36:04.328Z,90.90
2023-02-03T19:38:31.194Z,90.98
2023-02-03T19:40:58.160Z,90.82
2023-02-03T19:43:24.838Z,90.31
2023-02-03T19:45:51.736Z,90.98
2023-02-03T19:48:18.547Z,90.87
2023-02-03T19:50:47.802Z,90.77
2023-02-03T19:53:15.205Z,91.11
2023-02-03T19:55:43.578Z,91.20
2023-02-03T19:58:10.248Z,91.26
2023-02-03T20:00:37.045Z,91.56
2023-02-03T20:03:04.200Z,91.98
2023-02-03T20:05:30.851Z,92.55
2023-02-03T20:07:57.903Z,92.96
2023-02-03T20:10:26.360Z,93.10
2023-02-03T20:12:54.046Z,93.78
2023-02-03T20:15:24.015Z,93.98
2023-02-03T20:17:50.705Z,94.10
2023-02-03T20:20:20.363Z,94.17
2023-02-03T20:22:47.568Z,94.31
2023-02-03T20:25:14.435Z,94.42
2023-02-03T20:27:42.465Z,94.65
2023-02-03T20:30:09.680Z,95.00
2023-02-03T20:32:36.672Z,95.18
2023-02-03T20:35:04.837Z,95.41
2023-02-03T20:37:32.168Z,95.47
2023-02-03T20:39:58.994Z,95.43
2023-02-03T20:42:25.709Z,95.45
2023-02-03T20:44:52.380Z,95.53
2023-02-03T20:47:19.313Z,95.65
2023-02-03T20:49:47.687Z,95.84
2023-02-03T20:52:16.791Z,96.04
2023-02-03T20:54:47.842Z,96.16
2023-02-03T20:57:18.428Z,96.52
2023-02-03T20:59:46.913Z,96.64
2023-02-03T21:02:33.546Z,95.22
2023-02-03T21:05:02.235Z,93.73
2023-02-03T21:07:30.883Z,94.41
2023-02-03T21:09:59.984Z,94.43
2023-02-03T21:12:29.904Z,94.50
2023-02-03T21:14:57.316Z,94.17
2023-02-03T21:17:26.720Z,92.67
2023-02-03T21:20:03.871Z,92.47
2023-02-03T21:22:34.686Z,91.72
2023-02-03T21:25:03.377Z,90.91
2023-02-03T21:27:34.027Z,90.73
2023-02-03T21:30:06.149Z,91.11
2023-02-03T21:32:40.644Z,90.91
2023-02-03T21:35:28.035Z,91.57
2023-02-03T21:38:01.708Z,91.25
2023-02-03T21:40:33.734Z,91.58
2023-02-03T21:43:02.042Z,91.99
2023-02-03T21:45:41.864Z,91.77
2023-02-03T21:48:40.533Z,91.42
2023-02-03T21:51:32.356Z,90.47
2023-02-03T21:54:28.211Z,91.00
2023-02-03T21:57:17.780Z,91.20
2023-02-03T22:00:39.724Z,91.40
2023-02-03T22:03:28.153Z,90.96
2023-02-03T22:06:36.780Z,91.59
2023-02-03T22:09:25.960Z,91.46
2023-02-03T22:11:53.495Z,91.83
2023-02-03T22:14:23.506Z,92.27
2023-02-03T22:16:50.609Z,92.26
2023-02-03T22:19:17.518Z,92.33
2023-02-03T22:21:44.772Z,92.33
2023-02-03T22:24:11.574Z,92.11
2023-02-03T22:26:38.189Z,91.78
2023-02-03T22:29:05.576Z,91.76
2023-02-03T22:31:32.601Z,91.54
2023-02-03T22:33:59.295Z,90.39
2023-02-03T22:36:26.165Z,90.52
2023-02-03T22:38:52.930Z,91.07
2023-02-03T22:41:20.789Z,91.07
2023-02-03T22:43:47.403Z,90.83
2023-02-03T22:46:14.081Z,89.61
2023-02-03T22:48:40.718Z,89.23
2023-02-03T22:51:07.337Z,88.94
2023-02-03T22:53:34.798Z,88.96
2023-02-03T22:56:01.573Z,88.36
2023-02-03T22:58:28.151Z,89.18
2023-02-03T23:00:54.732Z,88.90
2023-02-03T23:03:21.388Z,89.63
2023-02-03T23:05:48.046Z,89.85
2023-02-03T23:08:14.761Z,90.24
2023-02-03T23:10:41.359Z,90.03
2023-02-03T23:13:08.182Z,89.91
2023-02-03T23:15:34.893Z,89.92
2023-02-03T23:18:01.509Z,89.93
2023-02-03T23:20:28.421Z,89.77
2023-02-03T23:22:55.049Z,90.25
2023-02-03T23:25:21.658Z,90.87
2023-02-03T23:27:48.253Z,90.95
2023-02-03T23:30:15.388Z,91.49
2023-02-03T23:32:42.091Z,92.28
2023-02-03T23:35:28.158Z,92.38
2023-02-03T23:37:55.120Z,92.73
2023-02-03T23:40:22.249Z,93.16
2023-02-03T23:42:48.988Z,92.87
2023-02-03T23:45:16.236Z,92.95
2023-02-03T23:47:44.403Z,92.61
2023-02-03T23:50:14.552Z,92.95
2023-02-03T23:52:41.181Z,92.77
2023-02-03T23:55:11.777Z,92.20
2023-02-03T23:57:38.645Z,92.11
